createdAt,value
2017-07-14T00:00:03.465Z,0
2017-07-14T00:00:29.607Z,0
2017-07-14T00:00:55.730Z,0
2017-07-14T00:01:22.367Z,0
2017-07-14T00:01:50.294Z,0
2017-07-14T00:02:18.474Z,0
2017-07-14T00:02:44.991Z,0
2017-07-14T00:03:12.196Z,0
2017-07-14T00:03:40.162Z,0
2017-07-14T00:04:07.981Z,0
2017-07-14T00:04:35.671Z,0
2017-07-14T00:05:02.215Z,0
2017-07-14T00:05:28.827Z,0
2017-07-14T00:05:56.649Z,0
2017-07-14T00:06:23.886Z,0
2017-07-14T00:06:51.299Z,0
2017-07-14T00:07:18.933Z,0
2017-07-14T00:07:45.054Z,0
2017-07-14T00:08:11.176Z,0
2017-07-14T00:08:37.298Z,0
2017-07-14T00:09:03.422Z,0
2017-07-14T00:09:29.544Z,0
2017-07-14T00:09:55.667Z,0
2017-07-14T00:10:21.789Z,0
2017-07-14T00:10:47.911Z,0
2017-07-14T00:11:14.033Z,0
2017-07-14T00:11:40.156Z,0
2017-07-14T00:12:06.278Z,0
2017-07-14T00:12:32.399Z,0
2017-07-14T00:12:58.522Z,0
2017-07-14T00:13:24.650Z,0
2017-07-14T00:13:50.766Z,0
2017-07-14T00:14:16.887Z,0
2017-07-14T00:14:43.011Z,0
2017-07-14T00:15:09.134Z,0
2017-07-14T00:15:35.255Z,0
2017-07-14T00:16:01.379Z,0
2017-07-14T00:16:27.520Z,0
2017-07-14T00:16:53.643Z,0
2017-07-14T00:17:19.765Z,0
2017-07-14T00:17:45.888Z,0
2017-07-14T00:18:12.011Z,0
2017-07-14T00:18:38.135Z,0
2017-07-14T00:19:04.276Z,0
2017-07-14T00:19:30.399Z,0
2017-07-14T00:19:56.520Z,0
2017-07-14T00:20:22.641Z,0
2017-07-14T00:20:48.766Z,0
2017-07-14T00:21:14.890Z,0
2017-07-14T00:21:41.009Z,0
2017-07-14T00:22:07.133Z,0
2017-07-14T00:22:33.253Z,0
2017-07-14T00:22:59.375Z,0
2017-07-14T00:23:25.496Z,0
2017-07-14T00:23:51.620Z,0
2017-07-14T00:24:17.741Z,0
2017-07-14T00:24:43.862Z,0
2017-07-14T00:25:09.984Z,0
2017-07-14T00:25:36.106Z,0
2017-07-14T00:26:02.228Z,0
2017-07-14T00:26:28.350Z,0
2017-07-14T00:26:54.474Z,0
2017-07-14T00:27:20.594Z,0
2017-07-14T00:27:46.715Z,0
2017-07-14T00:28:12.836Z,0
2017-07-14T00:28:38.960Z,0
2017-07-14T00:29:05.082Z,0
2017-07-14T00:29:31.205Z,0
2017-07-14T00:29:57.327Z,0
2017-07-14T00:30:23.456Z,0
2017-07-14T00:30:49.594Z,0
2017-07-14T00:31:15.736Z,0
2017-07-14T00:31:41.859Z,0
2017-07-14T00:32:07.982Z,0
2017-07-14T00:32:34.106Z,0
2017-07-14T00:33:00.227Z,0
2017-07-14T00:33:26.348Z,0
2017-07-14T00:33:52.473Z,0
2017-07-14T00:34:18.595Z,0
2017-07-14T00:34:44.718Z,0
2017-07-14T00:35:10.840Z,0
2017-07-14T00:35:36.962Z,0
2017-07-14T00:36:03.085Z,0
2017-07-14T00:36:29.208Z,0
2017-07-14T00:36:55.329Z,0
2017-07-14T00:37:21.451Z,0
2017-07-14T00:37:47.572Z,0
2017-07-14T00:38:13.715Z,0
2017-07-14T00:38:39.840Z,0
2017-07-14T00:39:05.960Z,0
2017-07-14T00:39:32.084Z,0
2017-07-14T00:39:58.204Z,0
2017-07-14T00:40:24.327Z,0
2017-07-14T00:40:50.449Z,0
2017-07-14T00:41:16.574Z,0
2017-07-14T00:41:42.695Z,0
2017-07-14T00:42:08.817Z,0
2017-07-14T00:42:34.938Z,0
2017-07-14T00:43:01.059Z,0
2017-07-14T00:43:27.182Z,0
2017-07-14T00:43:53.321Z,0
2017-07-14T00:44:19.427Z,0
2017-07-14T00:44:45.553Z,0
2017-07-14T00:45:11.673Z,0
2017-07-14T00:45:37.793Z,0
2017-07-14T00:46:03.915Z,0
2017-07-14T00:46:30.035Z,0
2017-07-14T00:46:56.157Z,0
2017-07-14T00:47:22.305Z,0
2017-07-14T00:47:48.404Z,0
2017-07-14T00:48:14.529Z,0
2017-07-14T00:48:40.647Z,0
2017-07-14T00:49:06.768Z,0
2017-07-14T00:49:32.889Z,0
2017-07-14T00:49:59.014Z,0
2017-07-14T00:50:25.136Z,0
2017-07-14T00:50:51.258Z,0
2017-07-14T00:51:17.380Z,0
2017-07-14T00:51:43.501Z,0
2017-07-14T00:52:09.665Z,0
2017-07-14T00:52:35.787Z,0
2017-07-14T00:53:01.909Z,0
2017-07-14T00:53:28.030Z,0
2017-07-14T00:53:54.150Z,0
2017-07-14T00:54:20.272Z,0
2017-07-14T00:54:46.396Z,0
2017-07-14T00:55:12.518Z,0
2017-07-14T00:55:38.641Z,0
2017-07-14T00:56:04.764Z,0
2017-07-14T00:56:30.885Z,0
2017-07-14T00:56:57.008Z,0
2017-07-14T00:57:23.130Z,0
2017-07-14T00:57:49.253Z,0
2017-07-14T00:58:15.374Z,0
2017-07-14T00:58:41.496Z,0
2017-07-14T00:59:07.618Z,0
2017-07-14T00:59:33.759Z,0
2017-07-14T00:59:59.883Z,0
2017-07-14T01:00:26.007Z,0
2017-07-14T01:00:52.130Z,0
2017-07-14T01:01:18.254Z,0
2017-07-14T01:01:44.376Z,0
2017-07-14T01:02:10.496Z,0
2017-07-14T01:02:36.618Z,0
2017-07-14T01:03:02.739Z,0
2017-07-14T01:03:28.861Z,0
2017-07-14T01:03:54.982Z,0
2017-07-14T01:04:21.113Z,0
2017-07-14T01:04:47.235Z,0
2017-07-14T01:05:13.357Z,0
2017-07-14T01:05:39.480Z,0
2017-07-14T01:06:05.601Z,0
2017-07-14T01:06:31.722Z,0
2017-07-14T01:06:57.844Z,0
2017-07-14T01:07:23.965Z,0
2017-07-14T01:07:50.087Z,0
2017-07-14T01:08:16.227Z,0
2017-07-14T01:08:42.356Z,0
2017-07-14T01:09:08.507Z,0
2017-07-14T01:09:34.640Z,0
2017-07-14T01:10:00.771Z,0
2017-07-14T01:10:26.917Z,0
2017-07-14T01:10:53.057Z,0
2017-07-14T01:11:19.187Z,0
2017-07-14T01:11:45.326Z,0
2017-07-14T01:12:11.459Z,0
2017-07-14T01:12:37.605Z,0
2017-07-14T01:13:03.741Z,0
2017-07-14T01:13:29.870Z,0
2017-07-14T01:13:56.016Z,0
2017-07-14T01:14:22.177Z,0
2017-07-14T01:14:48.310Z,0
2017-07-14T01:15:14.453Z,0
2017-07-14T01:15:40.601Z,0
2017-07-14T01:16:06.726Z,0
2017-07-14T01:16:32.868Z,0
2017-07-14T01:16:59.016Z,0
2017-07-14T01:17:25.144Z,0
2017-07-14T01:17:51.282Z,0
2017-07-14T01:18:17.415Z,0
2017-07-14T01:18:43.559Z,0
2017-07-14T01:19:09.704Z,0
2017-07-14T01:19:35.831Z,0
2017-07-14T01:20:01.969Z,0
2017-07-14T01:20:28.116Z,0
2017-07-14T01:20:54.246Z,0
2017-07-14T01:21:20.386Z,0
2017-07-14T01:21:46.534Z,0
2017-07-14T01:22:12.666Z,0
2017-07-14T01:22:38.795Z,0
2017-07-14T01:23:04.934Z,0
2017-07-14T01:23:31.076Z,0
2017-07-14T01:23:57.225Z,0
2017-07-14T01:24:23.353Z,0
2017-07-14T01:24:49.486Z,0
2017-07-14T01:25:15.633Z,0
2017-07-14T01:25:41.771Z,0
2017-07-14T01:26:07.900Z,0
2017-07-14T01:26:34.049Z,0
2017-07-14T01:27:00.183Z,0
2017-07-14T01:27:26.313Z,0
2017-07-14T01:27:52.458Z,0
2017-07-14T01:28:18.600Z,0
2017-07-14T01:28:44.735Z,0
2017-07-14T01:29:10.869Z,0
2017-07-14T01:29:36.997Z,0
2017-07-14T01:30:03.149Z,0
2017-07-14T01:30:29.284Z,0
2017-07-14T01:30:55.413Z,0
2017-07-14T01:31:21.559Z,0
2017-07-14T01:31:47.700Z,0
2017-07-14T01:32:13.826Z,0
2017-07-14T01:32:39.967Z,0
2017-07-14T01:33:06.114Z,0
2017-07-14T01:33:32.239Z,0
2017-07-14T01:33:58.385Z,0
2017-07-14T01:34:24.513Z,0
2017-07-14T01:34:50.663Z,0
2017-07-14T01:35:16.802Z,0
2017-07-14T01:35:42.934Z,0
2017-07-14T01:36:09.074Z,0
2017-07-14T01:36:35.219Z,0
2017-07-14T01:37:01.343Z,0
2017-07-14T01:37:27.484Z,0
2017-07-14T01:37:53.628Z,0
2017-07-14T01:38:19.758Z,0
2017-07-14T01:38:45.893Z,0
2017-07-14T01:39:12.043Z,0
2017-07-14T01:39:38.178Z,0
2017-07-14T01:40:04.322Z,0
2017-07-14T01:40:30.448Z,0
2017-07-14T01:40:56.585Z,0
2017-07-14T01:41:22.737Z,0
2017-07-14T01:41:48.865Z,0
2017-07-14T01:42:14.999Z,0
2017-07-14T01:42:41.166Z,0
2017-07-14T01:43:07.301Z,0
2017-07-14T01:43:33.428Z,0
2017-07-14T01:43:59.577Z,0
2017-07-14T01:44:25.713Z,0
2017-07-14T01:44:51.841Z,0
2017-07-14T01:45:17.990Z,0
2017-07-14T01:45:44.127Z,0
2017-07-14T01:46:10.259Z,0
2017-07-14T01:46:36.401Z,0
2017-07-14T01:47:02.543Z,0
2017-07-14T01:47:28.674Z,0
2017-07-14T01:47:54.811Z,0
2017-07-14T01:48:20.959Z,0
2017-07-14T01:48:47.087Z,0
2017-07-14T01:49:13.225Z,0
2017-07-14T01:49:39.367Z,0
2017-07-14T01:50:05.502Z,0
2017-07-14T01:50:31.630Z,0
2017-07-14T01:50:57.773Z,0
2017-07-14T01:51:23.913Z,0
2017-07-14T01:51:50.059Z,0
2017-07-14T01:52:16.191Z,0
2017-07-14T01:52:42.327Z,0
2017-07-14T01:53:08.470Z,0
2017-07-14T01:53:34.604Z,0
2017-07-14T01:54:00.736Z,0
2017-07-14T01:54:26.883Z,0
2017-07-14T01:54:53.020Z,0
2017-07-14T01:55:19.148Z,0
2017-07-14T01:55:45.295Z,0
2017-07-14T01:56:11.433Z,0
2017-07-14T01:56:37.576Z,0
2017-07-14T01:57:03.704Z,0
2017-07-14T01:57:29.837Z,0
2017-07-14T01:57:55.983Z,0
2017-07-14T01:58:22.120Z,0
2017-07-14T01:58:48.251Z,0
2017-07-14T01:59:14.394Z,0
2017-07-14T01:59:40.532Z,0
2017-07-14T02:00:06.663Z,0
2017-07-14T02:00:32.807Z,0
2017-07-14T02:00:58.952Z,0
2017-07-14T02:01:25.080Z,0
2017-07-14T02:01:51.217Z,0
2017-07-14T02:02:17.354Z,0
2017-07-14T02:02:43.498Z,0
2017-07-14T02:03:09.635Z,0
2017-07-14T02:03:35.764Z,0
2017-07-14T02:04:01.909Z,0
2017-07-14T02:04:28.052Z,0
2017-07-14T02:04:54.180Z,0
2017-07-14T02:05:20.319Z,0
2017-07-14T02:05:46.464Z,0
2017-07-14T02:06:12.595Z,0
2017-07-14T02:06:38.735Z,0
2017-07-14T02:07:04.874Z,0
2017-07-14T02:07:31.010Z,0
2017-07-14T02:07:57.143Z,0
2017-07-14T02:08:23.292Z,0
2017-07-14T02:08:49.428Z,0
2017-07-14T02:09:15.555Z,0
2017-07-14T02:09:41.703Z,0
2017-07-14T02:10:08.041Z,0
2017-07-14T02:10:34.170Z,0
2017-07-14T02:11:00.310Z,0
2017-07-14T02:11:26.459Z,0
2017-07-14T02:11:52.585Z,0
2017-07-14T02:12:18.724Z,0
2017-07-14T02:12:45.465Z,0
2017-07-14T02:13:11.596Z,0
2017-07-14T02:13:37.714Z,0
2017-07-14T02:14:03.867Z,0
2017-07-14T02:14:30.009Z,0
2017-07-14T02:14:56.126Z,0
2017-07-14T02:15:22.259Z,0
2017-07-14T02:15:48.380Z,0
2017-07-14T02:16:14.496Z,0
2017-07-14T02:16:40.625Z,0
2017-07-14T02:17:06.750Z,0
2017-07-14T02:17:32.866Z,0
2017-07-14T02:17:58.995Z,0
2017-07-14T02:18:25.124Z,0
2017-07-14T02:18:51.242Z,0
2017-07-14T02:19:17.386Z,0
2017-07-14T02:19:43.502Z,0
2017-07-14T02:20:09.632Z,0
2017-07-14T02:20:35.755Z,0
2017-07-14T02:21:01.871Z,0
2017-07-14T02:21:28.000Z,0
2017-07-14T02:21:54.132Z,0
2017-07-14T02:22:20.245Z,0
2017-07-14T02:22:46.371Z,0
2017-07-14T02:23:12.501Z,0
2017-07-14T02:23:38.616Z,0
2017-07-14T02:24:04.738Z,0
2017-07-14T02:24:30.861Z,0
2017-07-14T02:24:56.989Z,0
2017-07-14T02:25:23.118Z,0
2017-07-14T02:25:49.230Z,0
2017-07-14T02:26:15.355Z,0
2017-07-14T02:26:41.487Z,0
2017-07-14T02:27:07.605Z,0
2017-07-14T02:27:33.725Z,0
2017-07-14T02:27:59.859Z,0
2017-07-14T02:28:25.980Z,0
2017-07-14T02:28:52.091Z,0
2017-07-14T02:29:18.226Z,0
2017-07-14T02:29:44.347Z,0
2017-07-14T02:30:10.463Z,0
2017-07-14T02:30:36.594Z,0
2017-07-14T02:31:02.719Z,0
2017-07-14T02:31:28.833Z,0
2017-07-14T02:31:54.962Z,0
2017-07-14T02:32:21.093Z,0
2017-07-14T02:32:47.205Z,0
2017-07-14T02:33:13.349Z,0
2017-07-14T02:33:39.480Z,0
2017-07-14T02:34:05.596Z,0
2017-07-14T02:34:31.718Z,0
2017-07-14T02:34:57.850Z,0
2017-07-14T02:35:23.993Z,0
2017-07-14T02:35:50.145Z,0
2017-07-14T02:36:16.257Z,0
2017-07-14T02:36:42.383Z,0
2017-07-14T02:37:08.518Z,0
2017-07-14T02:37:34.654Z,0
2017-07-14T02:38:00.778Z,0
2017-07-14T02:38:26.909Z,0
2017-07-14T02:38:53.050Z,0
2017-07-14T02:39:19.165Z,0
2017-07-14T02:39:45.324Z,0
2017-07-14T02:40:11.447Z,0
2017-07-14T02:40:37.563Z,0
2017-07-14T02:41:03.695Z,0
2017-07-14T02:41:29.813Z,0
2017-07-14T02:41:55.945Z,0
2017-07-14T02:42:22.064Z,0
2017-07-14T02:42:48.179Z,0
2017-07-14T02:43:14.336Z,0
2017-07-14T02:43:40.459Z,0
2017-07-14T02:44:06.574Z,0
2017-07-14T02:44:32.705Z,0
2017-07-14T02:44:58.829Z,0
2017-07-14T02:45:24.945Z,0
2017-07-14T02:45:51.075Z,0
2017-07-14T02:46:17.206Z,0
2017-07-14T02:46:43.325Z,0
2017-07-14T02:47:09.450Z,0
2017-07-14T02:47:35.563Z,0
2017-07-14T02:48:01.695Z,0
2017-07-14T02:48:27.820Z,0
2017-07-14T02:48:53.937Z,0
2017-07-14T02:49:20.063Z,0
2017-07-14T02:49:46.218Z,0
2017-07-14T02:50:12.331Z,0
2017-07-14T02:50:38.453Z,0
2017-07-14T02:51:04.585Z,0
2017-07-14T02:51:30.722Z,0
2017-07-14T02:51:56.845Z,0
2017-07-14T02:52:22.965Z,0
2017-07-14T02:52:49.094Z,0
2017-07-14T02:53:15.249Z,0
2017-07-14T02:53:41.362Z,0
2017-07-14T02:54:07.487Z,0
2017-07-14T02:54:33.617Z,0
2017-07-14T02:54:59.733Z,0
2017-07-14T02:55:25.854Z,0
2017-07-14T02:55:51.984Z,0
2017-07-14T02:56:18.104Z,0
2017-07-14T02:56:44.220Z,0
2017-07-14T02:57:10.354Z,0
2017-07-14T02:57:36.475Z,0
2017-07-14T02:58:02.604Z,0
2017-07-14T02:58:28.720Z,0
2017-07-14T02:58:54.842Z,0
2017-07-14T02:59:20.972Z,0
2017-07-14T02:59:47.092Z,0
2017-07-14T03:00:13.206Z,0
2017-07-14T03:00:39.345Z,0
2017-07-14T03:01:05.468Z,0
2017-07-14T03:01:31.582Z,0
2017-07-14T03:01:57.712Z,0
2017-07-14T03:02:23.836Z,0
2017-07-14T03:02:49.952Z,0
2017-07-14T03:03:16.077Z,0
2017-07-14T03:03:42.193Z,0
2017-07-14T03:04:08.329Z,0
2017-07-14T03:04:34.451Z,0
2017-07-14T03:05:00.567Z,0
2017-07-14T03:05:26.702Z,0
2017-07-14T03:05:52.847Z,0
2017-07-14T03:06:18.964Z,0
2017-07-14T03:06:45.093Z,0
2017-07-14T03:07:11.225Z,0
2017-07-14T03:07:37.338Z,0
2017-07-14T03:08:03.463Z,0
2017-07-14T03:08:29.595Z,0
2017-07-14T03:08:55.711Z,0
2017-07-14T03:09:21.841Z,0
2017-07-14T03:09:47.976Z,0
2017-07-14T03:10:14.104Z,0
2017-07-14T03:10:40.235Z,0
2017-07-14T03:11:06.346Z,0
2017-07-14T03:11:32.471Z,0
2017-07-14T03:11:58.603Z,0
2017-07-14T03:12:24.736Z,0
2017-07-14T03:12:50.858Z,0
2017-07-14T03:13:16.990Z,0
2017-07-14T03:13:43.109Z,0
2017-07-14T03:14:09.225Z,0
2017-07-14T03:14:35.362Z,0
2017-07-14T03:15:01.485Z,0
2017-07-14T03:15:27.601Z,0
2017-07-14T03:15:53.731Z,0
2017-07-14T03:16:19.858Z,0
2017-07-14T03:16:45.975Z,0
2017-07-14T03:17:12.104Z,0
2017-07-14T03:17:38.236Z,0
2017-07-14T03:18:04.350Z,0
2017-07-14T03:18:30.474Z,0
2017-07-14T03:18:56.608Z,5
2017-07-14T03:19:22.724Z,5
2017-07-14T03:19:48.846Z,5
2017-07-14T03:20:14.970Z,5
2017-07-14T03:20:41.102Z,5
2017-07-14T03:21:07.230Z,5
2017-07-14T03:21:33.343Z,5
2017-07-14T03:21:59.469Z,5
2017-07-14T03:22:25.601Z,5
2017-07-14T03:22:51.715Z,5
2017-07-14T03:23:17.835Z,5
2017-07-14T03:23:43.964Z,5
2017-07-14T03:24:10.101Z,5
2017-07-14T03:24:36.216Z,5
2017-07-14T03:25:02.351Z,5
2017-07-14T03:25:28.474Z,5
2017-07-14T03:25:54.603Z,5
2017-07-14T03:26:20.719Z,5
2017-07-14T03:26:46.841Z,5
2017-07-14T03:27:12.971Z,5
2017-07-14T03:27:39.103Z,5
2017-07-14T03:28:05.206Z,10
2017-07-14T03:28:31.341Z,10
2017-07-14T03:28:57.476Z,10
2017-07-14T03:29:23.577Z,10
2017-07-14T03:29:49.710Z,10
2017-07-14T03:30:15.834Z,10
2017-07-14T03:30:41.951Z,10
2017-07-14T03:31:08.179Z,10
2017-07-14T03:31:34.295Z,10
2017-07-14T03:32:00.428Z,10
2017-07-14T03:32:26.550Z,10
2017-07-14T03:32:52.665Z,10
2017-07-14T03:33:18.795Z,10
2017-07-14T03:33:44.921Z,10
2017-07-14T03:34:11.038Z,10
2017-07-14T03:34:37.167Z,15
2017-07-14T03:35:03.301Z,15
2017-07-14T03:35:29.415Z,15
2017-07-14T03:35:55.539Z,15
2017-07-14T03:36:21.669Z,15
2017-07-14T03:36:47.785Z,15
2017-07-14T03:37:13.913Z,15
2017-07-14T03:37:40.027Z,15
2017-07-14T03:38:06.155Z,15
2017-07-14T03:38:32.286Z,15
2017-07-14T03:38:58.401Z,15
2017-07-14T03:39:24.526Z,15
2017-07-14T03:39:50.657Z,20
2017-07-14T03:40:16.773Z,20
2017-07-14T03:40:42.895Z,20
2017-07-14T03:41:09.048Z,20
2017-07-14T03:41:35.167Z,20
2017-07-14T03:42:01.282Z,20
2017-07-14T03:42:27.412Z,20
2017-07-14T03:42:53.537Z,20
2017-07-14T03:43:19.668Z,20
2017-07-14T03:43:45.784Z,20
2017-07-14T03:44:11.907Z,25
2017-07-14T03:44:38.038Z,25
2017-07-14T03:45:04.156Z,25
2017-07-14T03:45:30.270Z,25
2017-07-14T03:45:56.404Z,25
2017-07-14T03:46:22.525Z,25
2017-07-14T03:46:48.641Z,25
2017-07-14T03:47:14.773Z,30
2017-07-14T03:47:40.897Z,30
2017-07-14T03:48:07.022Z,30
2017-07-14T03:48:33.142Z,30
2017-07-14T03:48:59.258Z,30
2017-07-14T03:49:25.393Z,30
2017-07-14T03:49:51.515Z,35
2017-07-14T03:50:17.631Z,35
2017-07-14T03:50:43.764Z,35
2017-07-14T03:51:09.891Z,35
2017-07-14T03:51:36.005Z,35
2017-07-14T03:52:02.134Z,35
2017-07-14T03:52:28.267Z,40
2017-07-14T03:52:54.379Z,40
2017-07-14T03:53:20.506Z,40
2017-07-14T03:53:46.627Z,40
2017-07-14T03:54:12.758Z,40
2017-07-14T03:54:38.884Z,40
2017-07-14T03:55:05.000Z,40
2017-07-14T03:55:31.130Z,40
2017-07-14T03:55:57.261Z,40
2017-07-14T03:56:23.374Z,40
2017-07-14T03:56:49.497Z,45
2017-07-14T03:57:15.634Z,45
2017-07-14T03:57:41.746Z,45
2017-07-14T03:58:07.868Z,45
2017-07-14T03:58:33.999Z,45
2017-07-14T03:59:00.141Z,45
2017-07-14T03:59:26.234Z,45
2017-07-14T03:59:52.371Z,50
2017-07-14T04:00:18.495Z,50
2017-07-14T04:00:44.611Z,50
2017-07-14T04:01:10.763Z,50
2017-07-14T04:01:36.890Z,50
2017-07-14T04:02:03.007Z,50
2017-07-14T04:02:29.136Z,50
2017-07-14T04:02:55.267Z,55
2017-07-14T04:03:21.379Z,55
2017-07-14T04:03:47.504Z,55
2017-07-14T04:04:13.637Z,55
2017-07-14T04:04:39.779Z,60
2017-07-14T04:05:05.903Z,60
2017-07-14T04:05:32.019Z,60
2017-07-14T04:05:58.148Z,60
2017-07-14T04:06:24.279Z,65
2017-07-14T04:06:50.392Z,65
2017-07-14T04:07:16.515Z,65
2017-07-14T04:07:42.646Z,65
2017-07-14T04:08:08.761Z,65
2017-07-14T04:08:34.883Z,70
2017-07-14T04:09:01.013Z,70
2017-07-14T04:09:27.131Z,70
2017-07-14T04:09:53.248Z,70
2017-07-14T04:10:19.377Z,70
2017-07-14T04:10:45.503Z,70
2017-07-14T04:11:11.634Z,70
2017-07-14T04:11:37.749Z,70
2017-07-14T04:12:03.871Z,70
2017-07-14T04:12:30.004Z,70
2017-07-14T04:12:56.123Z,70
2017-07-14T04:13:22.238Z,70
2017-07-14T04:13:48.372Z,70
2017-07-14T04:14:14.494Z,75
2017-07-14T04:14:40.629Z,75
2017-07-14T04:15:06.760Z,75
2017-07-14T04:15:32.884Z,80
2017-07-14T04:15:59.019Z,80
2017-07-14T04:16:25.129Z,80
2017-07-14T04:16:51.242Z,85
2017-07-14T04:17:17.375Z,85
2017-07-14T04:17:43.495Z,90
2017-07-14T04:18:09.610Z,85
2017-07-14T04:18:35.740Z,85
2017-07-14T04:19:01.867Z,85
2017-07-14T04:19:27.982Z,90
2017-07-14T04:19:54.112Z,90
2017-07-14T04:20:20.243Z,90
2017-07-14T04:20:46.359Z,95
2017-07-14T04:21:12.480Z,95
2017-07-14T04:21:38.600Z,95
2017-07-14T04:22:04.733Z,95
2017-07-14T04:22:30.858Z,100
2017-07-14T04:22:56.973Z,100
2017-07-14T04:23:23.102Z,100
2017-07-14T04:23:49.238Z,105
2017-07-14T04:24:15.368Z,105
2017-07-14T04:24:41.495Z,110
2017-07-14T04:25:07.627Z,110
2017-07-14T04:25:33.742Z,115
2017-07-14T04:25:59.865Z,120
2017-07-14T04:26:25.998Z,120
2017-07-14T04:26:52.116Z,125
2017-07-14T04:27:18.247Z,130
2017-07-14T04:27:44.361Z,135
2017-07-14T04:28:10.484Z,140
2017-07-14T04:28:36.618Z,140
2017-07-14T04:29:02.758Z,140
2017-07-14T04:29:28.880Z,145
2017-07-14T04:29:55.015Z,145
2017-07-14T04:30:21.135Z,150
2017-07-14T04:30:47.286Z,150
2017-07-14T04:31:13.420Z,150
2017-07-14T04:31:39.542Z,150
2017-07-14T04:32:05.657Z,155
2017-07-14T04:32:31.788Z,160
2017-07-14T04:32:57.907Z,155
2017-07-14T04:33:24.037Z,155
2017-07-14T04:33:50.179Z,160
2017-07-14T04:34:16.293Z,160
2017-07-14T04:34:42.429Z,160
2017-07-14T04:35:08.551Z,165
2017-07-14T04:35:34.667Z,165
2017-07-14T04:36:00.799Z,165
2017-07-14T04:36:26.927Z,170
2017-07-14T04:36:53.040Z,170
2017-07-14T04:37:19.167Z,170
2017-07-14T04:37:45.298Z,170
2017-07-14T04:38:11.417Z,175
2017-07-14T04:38:37.540Z,175
2017-07-14T04:39:03.655Z,175
2017-07-14T04:39:29.787Z,180
2017-07-14T04:39:55.913Z,180
2017-07-14T04:40:22.031Z,180
2017-07-14T04:40:48.159Z,180
2017-07-14T04:41:14.291Z,185
2017-07-14T04:41:40.404Z,185
2017-07-14T04:42:06.529Z,185
2017-07-14T04:42:32.660Z,185
2017-07-14T04:42:58.777Z,185
2017-07-14T04:43:24.898Z,185
2017-07-14T04:43:51.033Z,185
2017-07-14T04:44:17.152Z,185
2017-07-14T04:44:43.266Z,185
2017-07-14T04:45:09.401Z,185
2017-07-14T04:45:35.523Z,190
2017-07-14T04:46:01.639Z,190
2017-07-14T04:46:27.773Z,190
2017-07-14T04:46:53.895Z,190
2017-07-14T04:47:20.029Z,190
2017-07-14T04:47:46.158Z,190
2017-07-14T04:48:12.291Z,185
2017-07-14T04:48:38.403Z,185
2017-07-14T04:49:04.528Z,185
2017-07-14T04:49:30.647Z,185
2017-07-14T04:49:56.781Z,185
2017-07-14T04:50:22.909Z,190
2017-07-14T04:50:49.027Z,225
2017-07-14T04:51:15.172Z,275
2017-07-14T04:51:41.287Z,335
2017-07-14T04:52:07.400Z,395
2017-07-14T04:52:33.525Z,460
2017-07-14T04:52:59.658Z,510
2017-07-14T04:53:25.774Z,540
2017-07-14T04:53:51.897Z,545
2017-07-14T04:54:18.034Z,540
2017-07-14T04:54:44.149Z,540
2017-07-14T04:55:10.282Z,540
2017-07-14T04:55:36.393Z,540
2017-07-14T04:56:02.518Z,550
2017-07-14T04:56:28.647Z,540
2017-07-14T04:56:54.768Z,545
2017-07-14T04:57:20.883Z,545
2017-07-14T04:57:47.018Z,565
2017-07-14T04:58:13.136Z,575
2017-07-14T04:58:39.251Z,575
2017-07-14T04:59:05.386Z,565
2017-07-14T04:59:31.508Z,555
2017-07-14T04:59:57.624Z,540
2017-07-14T05:00:23.780Z,520
2017-07-14T05:00:49.876Z,480
2017-07-14T05:01:16.006Z,430
2017-07-14T05:01:42.125Z,385
2017-07-14T05:02:08.240Z,345
2017-07-14T05:02:34.399Z,315
2017-07-14T05:03:00.523Z,290
2017-07-14T05:03:26.639Z,260
2017-07-14T05:03:52.773Z,240
2017-07-14T05:04:18.900Z,225
2017-07-14T05:04:45.017Z,220
2017-07-14T05:05:11.145Z,220
2017-07-14T05:05:37.279Z,220
2017-07-14T05:06:03.399Z,215
2017-07-14T05:06:29.522Z,215
2017-07-14T05:06:55.638Z,215
2017-07-14T05:07:21.768Z,215
2017-07-14T05:07:47.892Z,220
2017-07-14T05:08:14.011Z,220
2017-07-14T05:08:40.139Z,225
2017-07-14T05:09:06.271Z,220
2017-07-14T05:09:32.386Z,220
2017-07-14T05:09:58.511Z,220
2017-07-14T05:10:24.642Z,220
2017-07-14T05:10:50.764Z,220
2017-07-14T05:11:16.886Z,220
2017-07-14T05:11:43.032Z,220
2017-07-14T05:12:09.162Z,220
2017-07-14T05:12:35.293Z,220
2017-07-14T05:13:01.407Z,225
2017-07-14T05:13:27.553Z,225
2017-07-14T05:13:53.683Z,225
2017-07-14T05:14:19.799Z,225
2017-07-14T05:14:45.922Z,230
2017-07-14T05:15:12.054Z,230
2017-07-14T05:15:38.171Z,230
2017-07-14T05:16:04.288Z,230
2017-07-14T05:16:30.426Z,230
2017-07-14T05:16:56.549Z,230
2017-07-14T05:17:22.678Z,230
2017-07-14T05:17:48.794Z,230
2017-07-14T05:18:14.916Z,230
2017-07-14T05:18:41.047Z,230
2017-07-14T05:19:07.165Z,230
2017-07-14T05:19:33.282Z,235
2017-07-14T05:19:59.416Z,230
2017-07-14T05:20:25.538Z,230
2017-07-14T05:20:51.657Z,230
2017-07-14T05:21:17.788Z,230
2017-07-14T05:21:43.914Z,230
2017-07-14T05:22:10.032Z,230
2017-07-14T05:22:36.161Z,235
2017-07-14T05:23:02.278Z,235
2017-07-14T05:23:28.415Z,235
2017-07-14T05:23:54.537Z,235
2017-07-14T05:24:20.651Z,235
2017-07-14T05:24:46.782Z,235
2017-07-14T05:25:12.905Z,240
2017-07-14T05:25:39.020Z,240
2017-07-14T05:26:05.150Z,240
2017-07-14T05:26:31.309Z,240
2017-07-14T05:26:57.419Z,240
2017-07-14T05:27:23.546Z,245
2017-07-14T05:27:49.678Z,245
2017-07-14T05:28:15.795Z,245
2017-07-14T05:28:41.917Z,245
2017-07-14T05:29:08.072Z,245
2017-07-14T05:29:34.191Z,250
2017-07-14T05:30:00.307Z,250
2017-07-14T05:30:26.464Z,250
2017-07-14T05:30:52.567Z,250
2017-07-14T05:31:18.686Z,250
2017-07-14T05:31:44.817Z,250
2017-07-14T05:32:10.942Z,250
2017-07-14T05:32:37.059Z,250
2017-07-14T05:33:03.188Z,250
2017-07-14T05:33:29.320Z,250
2017-07-14T05:33:55.458Z,255
2017-07-14T05:34:21.579Z,255
2017-07-14T05:34:47.695Z,255
2017-07-14T05:35:13.830Z,255
2017-07-14T05:35:39.953Z,255
2017-07-14T05:36:06.068Z,260
2017-07-14T05:36:32.202Z,260
2017-07-14T05:36:58.326Z,260
2017-07-14T05:37:24.441Z,265
2017-07-14T05:37:50.566Z,260
2017-07-14T05:38:16.698Z,260
2017-07-14T05:38:42.813Z,260
2017-07-14T05:39:08.936Z,260
2017-07-14T05:39:35.058Z,260
2017-07-14T05:40:01.186Z,260
2017-07-14T05:40:27.320Z,260
2017-07-14T05:40:53.435Z,260
2017-07-14T05:41:19.561Z,260
2017-07-14T05:41:45.693Z,265
2017-07-14T05:42:11.830Z,265
2017-07-14T05:42:37.956Z,265
2017-07-14T05:43:04.086Z,265
2017-07-14T05:43:30.226Z,270
2017-07-14T05:43:56.342Z,270
2017-07-14T05:44:22.478Z,275
2017-07-14T05:44:48.601Z,270
2017-07-14T05:45:14.730Z,275
2017-07-14T05:45:40.846Z,275
2017-07-14T05:46:06.969Z,275
2017-07-14T05:46:33.099Z,280
2017-07-14T05:46:59.221Z,280
2017-07-14T05:47:25.356Z,280
2017-07-14T05:47:51.489Z,285
2017-07-14T05:48:17.613Z,285
2017-07-14T05:48:43.731Z,285
2017-07-14T05:49:09.863Z,285
2017-07-14T05:49:35.990Z,290
2017-07-14T05:50:02.105Z,290
2017-07-14T05:50:28.241Z,285
2017-07-14T05:50:54.356Z,285
2017-07-14T05:51:20.493Z,290
2017-07-14T05:51:46.686Z,290
2017-07-14T05:52:12.768Z,290
2017-07-14T05:52:38.900Z,295
2017-07-14T05:53:05.025Z,295
2017-07-14T05:53:31.141Z,295
2017-07-14T05:53:57.269Z,295
2017-07-14T05:54:23.402Z,295
2017-07-14T05:54:49.516Z,295
2017-07-14T05:55:15.641Z,300
2017-07-14T05:55:41.774Z,300
2017-07-14T05:56:07.892Z,300
2017-07-14T05:56:34.020Z,300
2017-07-14T05:57:00.160Z,300
2017-07-14T05:57:26.290Z,300
2017-07-14T05:57:52.422Z,300
2017-07-14T05:58:18.542Z,300
2017-07-14T05:58:44.666Z,300
2017-07-14T05:59:10.800Z,300
2017-07-14T05:59:36.919Z,300
2017-07-14T06:00:03.041Z,305
2017-07-14T06:00:29.173Z,305
2017-07-14T06:00:55.314Z,305
2017-07-14T06:01:21.449Z,305
2017-07-14T06:01:47.578Z,305
2017-07-14T06:02:13.706Z,300
2017-07-14T06:02:39.859Z,300
2017-07-14T06:03:05.976Z,300
2017-07-14T06:03:32.097Z,295
2017-07-14T06:03:58.229Z,300
2017-07-14T06:04:24.350Z,300
2017-07-14T06:04:50.465Z,305
2017-07-14T06:05:16.603Z,305
2017-07-14T06:05:42.727Z,310
2017-07-14T06:06:08.843Z,310
2017-07-14T06:06:34.974Z,315
2017-07-14T06:07:01.102Z,315
2017-07-14T06:07:27.229Z,315
2017-07-14T06:07:53.346Z,315
2017-07-14T06:08:19.465Z,320
2017-07-14T06:08:45.600Z,325
2017-07-14T06:09:11.725Z,320
2017-07-14T06:09:37.842Z,320
2017-07-14T06:10:03.975Z,320
2017-07-14T06:10:30.102Z,320
2017-07-14T06:10:56.217Z,320
2017-07-14T06:11:22.347Z,325
2017-07-14T06:11:48.479Z,325
2017-07-14T06:12:14.592Z,325
2017-07-14T06:12:40.716Z,325
2017-07-14T06:13:06.847Z,325
2017-07-14T06:13:32.964Z,325
2017-07-14T06:13:59.086Z,325
2017-07-14T06:14:25.218Z,325
2017-07-14T06:14:51.337Z,330
2017-07-14T06:15:17.453Z,330
2017-07-14T06:15:43.590Z,330
2017-07-14T06:16:09.717Z,335